createdAt,value
2019-03-26T00:02:27.702Z,101608.83
2019-03-26T00:07:33.212Z,101613.75
2019-03-26T00:12:38.484Z,101616.28
2019-03-26T00:17:43.934Z,101607.66
2019-03-26T00:22:48.986Z,101611.62
2019-03-26T00:27:54.158Z,101625.41
2019-03-26T00:32:59.304Z,101632.79
2019-03-26T00:38:05.164Z,101641.03
2019-03-26T00:43:10.560Z,101640.03
2019-03-26T00:48:16.087Z,101627.73
2019-03-26T00:53:21.469Z,101627.06
2019-03-26T00:58:26.905Z,101607.00
2019-03-26T01:03:32.267Z,101612.72
2019-03-26T01:08:37.536Z,101612.81
2019-03-26T01:13:43.089Z,101614.82
2019-03-26T01:18:48.241Z,101616.94
2019-03-26T01:23:53.601Z,101617.78
2019-03-26T01:28:59.159Z,101618.62
2019-03-26T01:34:04.826Z,101610.86
2019-03-26T01:39:10.284Z,101601.02
2019-03-26T01:44:15.655Z,101600.73
2019-03-26T01:49:21.014Z,101597.92
2019-03-26T01:54:26.262Z,101591.44
2019-03-26T01:59:31.525Z,101583.30
2019-03-26T02:04:37.084Z,101580.73
2019-03-26T02:09:42.444Z,101566.36
2019-03-26T02:14:47.610Z,101557.36
2019-03-26T02:19:52.999Z,101561.39
2019-03-26T02:24:58.318Z,101549.20
2019-03-26T02:30:03.570Z,101543.45
2019-03-26T02:35:18.388Z,101549.11
2019-03-26T02:40:17.781Z,101531.88
2019-03-26T02:45:23.150Z,101534.50
2019-03-26T02:50:28.530Z,101517.59
2019-03-26T02:55:33.750Z,101519.23
2019-03-26T03:00:39.212Z,101512.50
2019-03-26T03:05:44.463Z,101504.92
2019-03-26T03:10:49.828Z,101502.82
2019-03-26T03:15:55.208Z,101497.86
2019-03-26T03:21:00.385Z,101477.36
2019-03-26T03:26:05.583Z,101470.11
2019-03-26T03:31:10.759Z,101461.22
2019-03-26T03:36:15.818Z,101465.70
2019-03-26T03:41:21.154Z,101467.52
2019-03-26T03:46:26.416Z,101462.52
2019-03-26T03:51:34.342Z,101468.52
2019-03-26T03:56:41.222Z,101452.91
2019-03-26T04:01:46.587Z,101433.11
2019-03-26T04:06:51.864Z,101433.92
2019-03-26T04:11:57.346Z,101426.77
2019-03-26T04:17:02.666Z,101421.72
2019-03-26T04:22:08.151Z,101413.95
2019-03-26T04:27:13.401Z,101404.49
2019-03-26T04:32:19.692Z,101395.06
2019-03-26T04:37:24.893Z,101390.43
2019-03-26T04:42:30.286Z,101378.81
2019-03-26T04:47:35.692Z,101377.11
2019-03-26T04:52:40.985Z,101350.00
2019-03-26T04:57:46.362Z,101349.20
2019-03-26T05:02:51.708Z,101346.11
2019-03-26T05:07:56.925Z,101331.34
2019-03-26T05:13:02.306Z,101322.11
2019-03-26T05:18:07.600Z,101320.06
2019-03-26T05:23:12.940Z,101313.88
2019-03-26T05:28:18.252Z,101305.09
2019-03-26T05:33:23.362Z,101296.47
2019-03-26T05:38:28.792Z,101270.72
2019-03-26T05:43:34.070Z,101264.67
2019-03-26T05:48:39.150Z,101257.59
2019-03-26T05:53:44.530Z,101239.48
2019-03-26T05:58:49.944Z,101229.69
2019-03-26T06:03:55.093Z,101227.28
2019-03-26T06:09:00.456Z,101239.27
2019-03-26T06:14:07.464Z,101228.88
2019-03-26T06:19:13.013Z,101210.72
2019-03-26T06:24:18.237Z,101201.70
2019-03-26T06:29:23.529Z,101196.86
2019-03-26T06:34:28.788Z,101188.93
2019-03-26T06:39:33.867Z,101174.66
2019-03-26T06:44:39.173Z,101176.52
2019-03-26T06:49:44.555Z,101165.14
2019-03-26T06:54:51.676Z,101180.86
2019-03-26T06:59:56.712Z,101193.17
2019-03-26T07:05:01.861Z,101170.55
2019-03-26T07:10:08.508Z,101151.55
2019-03-26T07:15:13.910Z,101161.64
2019-03-26T07:20:19.163Z,101144.09
2019-03-26T07:25:24.632Z,101135.09
2019-03-26T07:30:38.585Z,101137.39
2019-03-26T07:35:43.965Z,101129.84
2019-03-26T07:40:49.299Z,101139.99
2019-03-26T07:45:54.671Z,101145.73
2019-03-26T07:50:59.931Z,101152.30
2019-03-26T07:56:05.364Z,101133.77
2019-03-26T08:01:10.757Z,101123.86
2019-03-26T08:06:16.101Z,101104.71
2019-03-26T08:11:21.351Z,101103.93
2019-03-26T08:16:26.412Z,101124.19
2019-03-26T08:21:31.519Z,101116.33
2019-03-26T08:26:36.922Z,101096.77
2019-03-26T08:31:42.282Z,101086.34
2019-03-26T08:36:47.362Z,101075.42
2019-03-26T08:41:52.774Z,101069.96
2019-03-26T08:46:58.364Z,101058.64
2019-03-26T08:52:03.635Z,101055.35
2019-03-26T08:57:09.061Z,101040.31
2019-03-26T09:02:14.433Z,101025.06
2019-03-26T09:07:19.794Z,101006.30
2019-03-26T09:12:25.154Z,101006.30
2019-03-26T09:17:30.518Z,101018.97
2019-03-26T09:22:35.673Z,100999.65
2019-03-26T09:27:41.124Z,101001.88
2019-03-26T09:32:46.581Z,101005.17
2019-03-26T09:37:52.039Z,101003.98
2019-03-26T09:42:57.411Z,101002.84
2019-03-26T09:48:02.673Z,101065.71
2019-03-26T09:53:08.012Z,101065.71
2019-03-26T09:58:13.161Z,101069.78
2019-03-26T10:03:18.637Z,101075.60
2019-03-26T10:08:23.998Z,101074.40
2019-03-26T10:13:29.242Z,101058.44
2019-03-26T10:18:34.505Z,101054.11
2019-03-26T10:23:40.175Z,101044.37
2019-03-26T10:28:45.432Z,101031.03
2019-03-26T10:33:50.847Z,101040.37
2019-03-26T10:39:05.561Z,101028.06
2019-03-26T10:44:03.153Z,101039.34
2019-03-26T10:49:08.616Z,101051.83
2019-03-26T10:54:13.862Z,101057.73
2019-03-26T10:59:20.427Z,101092.55
2019-03-26T11:04:25.814Z,101112.52
2019-03-26T11:09:30.998Z,101158.92
2019-03-26T11:14:36.284Z,101167.84
2019-03-26T11:19:41.676Z,101182.39
2019-03-26T11:24:47.036Z,101193.83
2019-03-26T11:29:52.585Z,101201.34
2019-03-26T11:34:57.761Z,101207.17
2019-03-26T11:40:03.051Z,101216.44
2019-03-26T11:45:10.622Z,101219.94
2019-03-26T11:50:16.709Z,101240.91
2019-03-26T11:55:22.117Z,101242.95
2019-03-26T12:00:31.710Z,101226.15
2019-03-26T12:05:37.120Z,101255.02
2019-03-26T12:10:42.550Z,101277.42
2019-03-26T12:15:47.790Z,101285.14
2019-03-26T12:20:54.181Z,101258.22
2019-03-26T12:25:59.436Z,101270.72
2019-03-26T12:31:05.002Z,101288.28
2019-03-26T12:36:10.373Z,101298.59
2019-03-26T12:41:15.614Z,101308.22
2019-03-26T12:46:20.969Z,101330.61
2019-03-26T12:51:26.337Z,101319.47
2019-03-26T12:56:31.606Z,101322.38
2019-03-26T13:01:37.050Z,101333.33
2019-03-26T13:06:42.320Z,101326.05
2019-03-26T13:11:47.659Z,101331.73
2019-03-26T13:16:52.863Z,101351.86
2019-03-26T13:21:58.183Z,101349.97
2019-03-26T13:27:03.545Z,101356.31
2019-03-26T13:32:08.956Z,101374.23
2019-03-26T13:37:14.145Z,101369.97
2019-03-26T13:42:19.606Z,101383.73
2019-03-26T13:47:24.967Z,101403.92
2019-03-26T13:52:30.225Z,101421.19
2019-03-26T13:57:35.660Z,101438.45
2019-03-26T14:02:41.219Z,101440.30
2019-03-26T14:07:46.725Z,101440.09
2019-03-26T14:12:53.088Z,101444.00
2019-03-26T14:17:58.359Z,101444.00
2019-03-26T14:23:04.725Z,101450.59
2019-03-26T14:28:09.984Z,101456.14
2019-03-26T14:33:15.650Z,101480.62
2019-03-26T14:38:21.033Z,101497.72
2019-03-26T14:43:26.388Z,101507.70
2019-03-26T14:48:31.618Z,101519.27
2019-03-26T14:53:36.856Z,101529.96
2019-03-26T14:58:42.184Z,101522.02
2019-03-26T15:03:47.587Z,101512.25
2019-03-26T15:08:53.273Z,101520.99
2019-03-26T15:13:58.551Z,101535.70
2019-03-26T15:19:03.931Z,101527.30
2019-03-26T15:24:09.456Z,101533.81
2019-03-26T15:29:15.011Z,101538.20
2019-03-26T15:34:20.373Z,101555.08
2019-03-26T15:39:26.009Z,101570.94
2019-03-26T15:44:31.583Z,101577.27
2019-03-26T15:49:36.861Z,101589.53
2019-03-26T15:54:42.059Z,101608.69
2019-03-26T15:59:47.389Z,101623.58
2019-03-26T16:04:53.659Z,101630.79
2019-03-26T16:09:59.014Z,101634.49
2019-03-26T16:15:07.340Z,101638.36
2019-03-26T16:20:14.663Z,101645.58
2019-03-26T16:25:20.200Z,101659.69
2019-03-26T16:30:25.661Z,101668.42
2019-03-26T16:35:30.921Z,101672.39
2019-03-26T16:40:36.284Z,101686.03
2019-03-26T16:45:41.638Z,101703.62
2019-03-26T16:50:47.096Z,101697.05
2019-03-26T16:55:52.472Z,101721.17
2019-03-26T17:00:57.822Z,101722.77
2019-03-26T17:06:03.183Z,101739.42
2019-03-26T17:11:09.552Z,101740.09
2019-03-26T17:16:14.924Z,101760.70
2019-03-26T17:21:20.193Z,101755.81
2019-03-26T17:26:25.513Z,101784.19
2019-03-26T17:31:31.052Z,101793.18
2019-03-26T17:36:36.351Z,101799.82
2019-03-26T17:41:41.639Z,101808.20
2019-03-26T17:46:47.172Z,101834.16
2019-03-26T17:51:52.657Z,101842.70
2019-03-26T17:56:58.206Z,101848.80
2019-03-26T18:02:04.635Z,101859.50
2019-03-26T18:07:10.245Z,101877.65
2019-03-26T18:12:15.723Z,101881.66
2019-03-26T18:17:21.175Z,101893.22
2019-03-26T18:22:26.322Z,101900.66
2019-03-26T18:27:31.469Z,101915.22
2019-03-26T18:32:36.939Z,101921.65
2019-03-26T18:37:42.403Z,101928.48
2019-03-26T18:42:47.845Z,101943.96
2019-03-26T18:47:53.223Z,101958.86
2019-03-26T18:52:58.532Z,101948.21
2019-03-26T18:58:04.539Z,101955.48
2019-03-26T19:03:10.428Z,101973.42
2019-03-26T19:08:15.681Z,101989.92
2019-03-26T19:13:21.252Z,101989.27
2019-03-26T19:18:27.807Z,101991.45
2019-03-26T19:23:33.578Z,102005.80
2019-03-26T19:28:39.340Z,102008.31
2019-03-26T19:33:44.634Z,102011.17
2019-03-26T19:38:50.371Z,102018.73
2019-03-26T19:43:56.326Z,102019.28
2019-03-26T19:49:01.513Z,102028.41
2019-03-26T19:54:07.004Z,102032.17
2019-03-26T19:59:12.457Z,102032.38
2019-03-26T20:04:17.830Z,102040.94
2019-03-26T20:09:23.197Z,102057.14
2019-03-26T20:14:28.400Z,102060.18
2019-03-26T20:19:34.017Z,102053.00
2019-03-26T20:24:39.520Z,102056.38
2019-03-26T20:29:44.666Z,102063.64
2019-03-26T20:34:49.969Z,102066.41
2019-03-26T20:39:55.293Z,102068.33
2019-03-26T20:45:01.625Z,102069.75
2019-03-26T20:50:08.756Z,102074.95
2019-03-26T20:55:16.436Z,102077.98
2019-03-26T21:00:30.581Z,102089.47
2019-03-26T21:05:36.569Z,102092.48
2019-03-26T21:10:41.921Z,102101.66
2019-03-26T21:15:56.527Z,102088.20
2019-03-26T21:20:54.360Z,102101.25
2019-03-26T21:25:59.926Z,102097.12
2019-03-26T21:31:05.188Z,102095.23
2019-03-26T21:36:10.566Z,102108.94
2019-03-26T21:41:15.903Z,102123.73
2019-03-26T21:46:21.395Z,102139.83
2019-03-26T21:51:26.629Z,102141.27
2019-03-26T21:56:31.997Z,102150.29
2019-03-26T22:01:37.339Z,102159.58
2019-03-26T22:06:42.785Z,102162.28
2019-03-26T22:11:50.099Z,102180.27
2019-03-26T22:16:55.328Z,102167.03
2019-03-26T22:22:00.509Z,102161.37
2019-03-26T22:27:05.684Z,102171.14
2019-03-26T22:32:11.139Z,102168.72
2019-03-26T22:37:16.583Z,102174.22
2019-03-26T22:42:21.852Z,102170.27
2019-03-26T22:47:26.998Z,102175.37
2019-03-26T22:52:32.476Z,102183.34
2019-03-26T22:57:38.032Z,102177.56
2019-03-26T23:02:43.484Z,102170.62
2019-03-26T23:07:48.749Z,102190.92
2019-03-26T23:12:54.009Z,102194.38
2019-03-26T23:17:59.564Z,102194.25
2019-03-26T23:23:04.952Z,102198.61
2019-03-26T23:28:10.313Z,102202.58
2019-03-26T23:33:15.739Z,102211.57
2019-03-26T23:38:21.205Z,102210.70
2019-03-26T23:43:27.798Z,102216.98
2019-03-26T23:48:33.261Z,102221.20
2019-03-26T23:53:38.505Z,102220.45
2019-03-26T23:58:43.809Z,102226.48
